createdAt,value
2018-07-10T00:00:50.205Z,1.98
2018-07-10T00:03:31.431Z,1.72
2018-07-10T00:08:17.933Z,1.85
2018-07-10T00:11:07.812Z,1.70
2018-07-10T00:13:37.106Z,1.70
2018-07-10T00:16:06.596Z,2.22
2018-07-10T00:18:36.380Z,1.77
2018-07-10T00:21:05.668Z,1.67
2018-07-10T00:23:35.696Z,2.05
2018-07-10T00:26:05.279Z,1.27
2018-07-10T00:28:34.595Z,1.70
2018-07-10T00:31:04.005Z,1.90
2018-07-10T00:33:33.290Z,1.40
2018-07-10T00:36:02.868Z,1.95
2018-07-10T00:39:11.878Z,1.87
2018-07-10T00:41:42.151Z,1.67
2018-07-10T00:44:11.797Z,1.82
2018-07-10T00:46:41.807Z,1.98
2018-07-10T00:49:11.151Z,1.70
2018-07-10T00:51:41.842Z,1.80
2018-07-10T00:54:12.083Z,1.60
2018-07-10T00:56:42.219Z,1.60
2018-07-10T00:59:11.508Z,1.82
2018-07-10T01:01:40.891Z,1.70
2018-07-10T01:04:10.191Z,1.77
2018-07-10T01:06:39.479Z,1.77
2018-07-10T01:09:13.512Z,1.80
2018-07-10T01:11:42.929Z,1.62
2018-07-10T01:14:12.284Z,1.98
2018-07-10T01:16:41.888Z,1.90
2018-07-10T01:19:15.888Z,1.75
2018-07-10T01:21:46.995Z,1.85
2018-07-10T01:24:18.817Z,2.10
2018-07-10T01:26:49.538Z,1.82
2018-07-10T01:29:24.655Z,1.77
2018-07-10T01:31:54.886Z,2.42
2018-07-10T01:34:24.927Z,1.98
2018-07-10T01:36:54.879Z,2.33
2018-07-10T01:39:24.108Z,2.22
2018-07-10T01:41:53.491Z,2.17
2018-07-10T01:44:22.986Z,2.17
2018-07-10T01:46:52.309Z,2.15
2018-07-10T01:49:21.622Z,2.40
2018-07-10T01:51:51.013Z,2.55
2018-07-10T01:54:22.563Z,2.17
2018-07-10T01:56:51.888Z,2.25
2018-07-10T01:59:22.029Z,2.42
2018-07-10T02:01:51.649Z,2.22
2018-07-10T02:04:21.002Z,2.17
2018-07-10T02:06:50.368Z,1.98
2018-07-10T02:09:19.655Z,1.70
2018-07-10T02:11:49.026Z,1.95
2018-07-10T02:14:18.688Z,1.80
2018-07-10T02:16:49.413Z,2.27
2018-07-10T02:19:19.124Z,1.87
2018-07-10T02:21:48.588Z,1.90
2018-07-10T02:24:23.287Z,1.67
2018-07-10T02:26:53.215Z,1.77
2018-07-10T02:29:22.584Z,1.30
2018-07-10T02:31:52.319Z,1.70
2018-07-10T02:34:21.630Z,1.77
2018-07-10T02:36:51.713Z,1.92
2018-07-10T02:39:21.015Z,1.80
2018-07-10T02:41:50.447Z,1.50
2018-07-10T02:44:23.400Z,1.98
2018-07-10T02:46:52.706Z,1.85
2018-07-10T02:49:23.088Z,1.55
2018-07-10T02:51:56.923Z,1.50
2018-07-10T02:54:30.092Z,1.62
2018-07-10T02:56:59.554Z,1.80
2018-07-10T02:59:39.549Z,1.50
2018-07-10T03:02:29.206Z,1.77
2018-07-10T03:05:02.331Z,1.35
2018-07-10T03:07:33.100Z,1.60
2018-07-10T03:10:03.072Z,1.50
2018-07-10T03:12:36.107Z,1.50
2018-07-10T03:15:07.596Z,1.52
2018-07-10T03:17:36.980Z,1.70
2018-07-10T03:20:07.346Z,1.67
2018-07-10T03:22:37.070Z,1.82
2018-07-10T03:25:07.225Z,1.50
2018-07-10T03:27:36.577Z,1.95
2018-07-10T03:30:06.309Z,2.00
2018-07-10T03:32:36.159Z,1.80
2018-07-10T03:35:05.407Z,2.30
2018-07-10T03:37:34.764Z,2.70
2018-07-10T03:40:04.059Z,2.12
2018-07-10T03:42:33.420Z,2.62
2018-07-10T03:45:03.485Z,2.70
2018-07-10T03:47:33.039Z,2.35
2018-07-10T03:50:02.371Z,2.05
2018-07-10T03:52:35.042Z,2.33
2018-07-10T03:55:09.245Z,2.10
2018-07-10T03:57:38.733Z,2.17
2018-07-10T04:00:10.240Z,2.40
2018-07-10T04:02:48.416Z,2.20
2018-07-10T04:05:19.814Z,2.20
2018-07-10T04:07:57.987Z,1.90
2018-07-10T04:10:28.654Z,1.72
2018-07-10T04:13:01.437Z,2.12
2018-07-10T04:15:30.760Z,2.33
2018-07-10T04:18:08.545Z,2.22
2018-07-10T04:20:53.504Z,2.10
2018-07-10T04:23:23.377Z,2.30
2018-07-10T04:25:54.696Z,2.02
2018-07-10T04:28:30.100Z,1.80
2018-07-10T04:32:08.272Z,2.25
2018-07-10T04:34:37.595Z,2.12
2018-07-10T04:37:12.168Z,1.95
2018-07-10T04:39:43.171Z,2.40
2018-07-10T04:42:27.288Z,2.20
2018-07-10T04:45:02.270Z,2.17
2018-07-10T04:47:43.415Z,1.80
2018-07-10T04:50:30.836Z,1.70
2018-07-10T04:53:06.188Z,1.92
2018-07-10T04:55:38.833Z,1.77
2018-07-10T04:58:11.853Z,1.80
2018-07-10T05:00:48.954Z,1.70
2018-07-10T05:03:19.710Z,2.15
2018-07-10T05:05:49.154Z,1.70
2018-07-10T05:08:19.898Z,1.90
2018-07-10T05:10:49.975Z,1.90
2018-07-10T05:13:19.311Z,1.87
2018-07-10T05:15:51.756Z,1.72
2018-07-10T05:18:21.813Z,2.05
2018-07-10T05:20:51.168Z,2.27
2018-07-10T05:23:21.474Z,1.87
2018-07-10T05:25:53.700Z,2.10
2018-07-10T05:28:23.992Z,1.90
2018-07-10T05:30:56.972Z,2.22
2018-07-10T05:33:26.336Z,1.98
2018-07-10T05:35:56.928Z,1.95
2018-07-10T05:38:35.103Z,2.05
2018-07-10T05:41:05.124Z,1.70
2018-07-10T05:43:40.292Z,1.92
2018-07-10T05:46:10.293Z,2.35
2018-07-10T05:48:40.052Z,1.62
2018-07-10T05:51:10.124Z,1.70
2018-07-10T05:53:39.926Z,2.08
2018-07-10T05:56:09.316Z,2.10
2018-07-10T05:58:38.713Z,2.08
2018-07-10T06:01:08.720Z,2.12
2018-07-10T06:03:38.074Z,1.82
2018-07-10T06:06:07.434Z,2.22
2018-07-10T06:08:37.168Z,2.02
2018-07-10T06:11:06.518Z,1.80
2018-07-10T06:13:36.020Z,3.22
2018-07-10T06:33:21.604Z,1.60
2018-07-10T06:36:00.598Z,2.10
2018-07-10T06:38:30.008Z,2.20
2018-07-10T06:40:59.336Z,1.67
2018-07-10T06:43:31.432Z,1.85
2018-07-10T06:46:00.700Z,2.20
2018-07-10T06:48:41.544Z,1.82
2018-07-10T06:51:14.343Z,2.00
2018-07-10T06:53:45.001Z,2.20
2018-07-10T06:56:18.835Z,2.33
2018-07-10T06:58:48.220Z,2.22
2018-07-10T07:01:17.686Z,1.92
2018-07-10T07:03:47.182Z,2.12
2018-07-10T07:06:17.162Z,2.20
2018-07-10T07:08:48.313Z,1.90
2018-07-10T07:11:17.731Z,2.33
2018-07-10T07:13:47.221Z,2.22
2018-07-10T07:16:16.876Z,2.00
2018-07-10T07:18:46.284Z,2.58
2018-07-10T07:21:19.662Z,2.33
2018-07-10T07:23:49.285Z,2.05
2018-07-10T07:26:18.759Z,2.15
2018-07-10T07:28:48.297Z,2.17
2018-07-10T07:31:18.138Z,2.00
2018-07-10T07:33:48.541Z,2.00
2018-07-10T07:36:17.980Z,2.20
2018-07-10T07:38:47.458Z,2.17
2018-07-10T07:41:16.928Z,1.82
2018-07-10T07:43:48.160Z,2.02
2018-07-10T07:46:17.649Z,1.90
2018-07-10T07:48:47.005Z,2.22
2018-07-10T07:51:16.496Z,2.00
2018-07-10T07:53:46.208Z,1.98
2018-07-10T07:56:15.663Z,1.85
2018-07-10T07:58:46.212Z,1.95
2018-07-10T08:01:15.559Z,1.95
2018-07-10T08:03:44.908Z,1.87
2018-07-10T08:06:14.345Z,2.30
2018-07-10T08:08:43.675Z,2.50
2018-07-10T08:11:13.369Z,2.42
2018-07-10T08:13:42.764Z,2.47
2018-07-10T08:16:12.068Z,2.10
2018-07-10T08:18:42.463Z,2.60
2018-07-10T08:21:11.879Z,2.72
2018-07-10T08:23:41.334Z,2.17
2018-07-10T08:26:11.728Z,3.08
2018-07-10T08:28:41.095Z,3.50
2018-07-10T08:31:10.486Z,2.20
2018-07-10T08:33:39.838Z,2.30
2018-07-10T08:36:09.731Z,2.52
2018-07-10T08:38:40.598Z,2.60
2018-07-10T08:41:25.652Z,2.60
2018-07-10T08:43:56.329Z,2.20
2018-07-10T08:46:27.838Z,2.20
2018-07-10T08:48:58.314Z,2.30
2018-07-10T08:51:27.659Z,2.27
2018-07-10T08:53:57.022Z,2.80
2018-07-10T08:56:26.398Z,2.30
2018-07-10T08:58:56.632Z,2.00
2018-07-10T09:01:27.730Z,2.10
2018-07-10T09:03:57.163Z,2.55
2018-07-10T09:06:27.903Z,2.25
2018-07-10T09:08:57.334Z,2.62
2018-07-10T09:11:27.098Z,2.40
2018-07-10T09:13:56.463Z,2.12
2018-07-10T09:16:25.819Z,2.00
2018-07-10T09:18:55.784Z,2.08
2018-07-10T09:21:25.230Z,2.15
2018-07-10T09:23:54.830Z,2.25
2018-07-10T09:26:24.279Z,2.75
2018-07-10T09:28:53.711Z,2.47
2018-07-10T09:31:23.657Z,3.00
2018-07-10T09:33:53.102Z,2.90
2018-07-10T09:36:23.123Z,3.08
2018-07-10T09:38:52.546Z,2.90
2018-07-10T09:41:21.917Z,2.85
2018-07-10T09:43:51.444Z,3.08
2018-07-10T09:46:20.864Z,3.03
2018-07-10T09:48:50.148Z,2.72
2018-07-10T09:51:19.464Z,2.62
2018-07-10T09:53:48.813Z,2.63
2018-07-10T09:56:18.268Z,2.67
2018-07-10T09:58:48.348Z,2.60
2018-07-10T10:01:22.207Z,2.42
2018-07-10T10:03:51.895Z,2.60
2018-07-10T10:06:21.260Z,2.37
2018-07-10T10:08:50.587Z,2.57
2018-07-10T10:11:20.060Z,2.70
2018-07-10T10:13:49.367Z,2.77
2018-07-10T10:16:18.832Z,2.50
2018-07-10T10:18:49.759Z,2.37
2018-07-10T10:21:19.917Z,2.70
2018-07-10T10:23:49.434Z,3.33
2018-07-10T10:26:19.835Z,2.87
2018-07-10T10:28:49.837Z,3.30
2018-07-10T10:31:19.246Z,2.97
2018-07-10T10:33:48.653Z,3.25
2018-07-10T10:36:18.145Z,3.35
2018-07-10T10:38:48.173Z,2.92
2018-07-10T10:41:17.833Z,3.02
2018-07-10T10:43:48.399Z,3.27
2018-07-10T10:46:20.265Z,3.50
2018-07-10T10:48:51.016Z,3.60
2018-07-10T10:51:22.543Z,3.37
2018-07-10T10:53:51.848Z,3.33
2018-07-10T10:56:21.658Z,3.00
2018-07-10T10:58:51.081Z,2.80
2018-07-10T11:01:20.054Z,3.13
2018-07-10T11:03:50.477Z,3.20
2018-07-10T11:06:19.839Z,3.50
2018-07-10T11:08:49.213Z,2.95
2018-07-10T11:11:18.651Z,3.35
2018-07-10T11:13:47.985Z,3.17
2018-07-10T11:16:18.192Z,3.20
2018-07-10T11:19:57.389Z,3.25
2018-07-10T11:22:26.784Z,3.50
2018-07-10T11:25:03.992Z,3.70
2018-07-10T11:27:44.587Z,3.33
2018-07-10T11:30:14.357Z,3.17
2018-07-10T11:32:43.719Z,3.65
2018-07-10T11:35:13.335Z,3.65
2018-07-10T11:37:43.990Z,3.70
2018-07-10T11:40:14.160Z,3.77
2018-07-10T11:42:43.760Z,4.25
2018-07-10T11:45:13.088Z,4.58
2018-07-10T11:47:42.691Z,4.55
2018-07-10T11:50:12.148Z,3.70
2018-07-10T11:52:41.739Z,4.80
2018-07-10T11:55:11.003Z,4.78
2018-07-10T11:57:40.403Z,4.45
2018-07-10T12:00:09.684Z,4.70
2018-07-10T12:02:44.151Z,4.22
2018-07-10T12:05:15.536Z,5.60
2018-07-10T12:07:49.401Z,5.35
2018-07-10T12:10:21.231Z,5.42
2018-07-10T12:12:51.523Z,6.00
2018-07-10T12:15:21.186Z,5.80
2018-07-10T12:17:53.009Z,7.12
2018-07-10T12:20:42.127Z,8.53
2018-07-10T12:23:12.360Z,8.38
2018-07-10T12:25:43.504Z,9.25
2018-07-10T12:28:13.922Z,7.70
2018-07-10T12:30:43.675Z,9.10
2018-07-10T12:33:13.089Z,7.15
2018-07-10T12:35:42.434Z,6.40
2018-07-10T12:38:12.310Z,4.70
2018-07-10T12:40:41.597Z,4.62
2018-07-10T12:43:10.982Z,4.58
2018-07-10T12:45:40.351Z,4.67
2018-07-10T12:48:10.823Z,4.85
2018-07-10T12:50:40.111Z,5.83
2018-07-10T12:53:09.504Z,5.12
2018-07-10T12:55:38.870Z,5.28
2018-07-10T12:58:08.298Z,5.67
2018-07-10T13:00:37.990Z,6.28
2018-07-10T13:03:09.659Z,6.85
2018-07-10T13:05:48.053Z,6.90
2018-07-10T13:08:18.249Z,7.37
2018-07-10T13:10:47.624Z,7.30
2018-07-10T13:13:17.228Z,7.37
2018-07-10T13:15:46.923Z,6.43
2018-07-10T13:18:19.890Z,6.97
2018-07-10T13:20:49.590Z,7.15
2018-07-10T13:23:20.055Z,6.85
2018-07-10T13:25:49.512Z,7.75
2018-07-10T13:28:18.994Z,7.67
2018-07-10T13:30:48.318Z,7.50
2018-07-10T13:33:17.931Z,7.33
2018-07-10T13:35:47.447Z,5.97
2018-07-10T13:38:19.329Z,6.20
2018-07-10T13:40:49.310Z,6.40
2018-07-10T13:43:18.718Z,7.00
2018-07-10T13:45:48.391Z,7.08
2018-07-10T13:48:17.750Z,7.08
2018-07-10T13:50:47.886Z,6.90
2018-07-10T13:53:17.236Z,7.37
2018-07-10T13:55:46.756Z,7.92
2018-07-10T13:58:18.921Z,8.23
2018-07-10T14:00:53.462Z,8.25
2018-07-10T14:03:23.239Z,8.15
2018-07-10T14:05:52.613Z,7.65
2018-07-10T14:08:22.036Z,7.15
2018-07-10T14:10:51.422Z,7.85
2018-07-10T14:13:21.276Z,6.97
2018-07-10T14:15:50.598Z,6.92
2018-07-10T14:18:20.194Z,6.22
2018-07-10T14:20:52.177Z,6.45
2018-07-10T14:23:21.797Z,6.70
2018-07-10T14:25:51.878Z,6.97
2018-07-10T14:28:21.304Z,7.03
2018-07-10T14:30:51.488Z,7.87
2018-07-10T14:33:21.061Z,7.15
2018-07-10T14:35:50.439Z,7.12
2018-07-10T14:38:26.616Z,6.95
2018-07-10T14:40:57.067Z,7.35
2018-07-10T14:43:30.861Z,7.90
2018-07-10T14:46:10.846Z,8.10
2018-07-10T14:48:45.986Z,7.10
2018-07-10T14:51:19.048Z,7.85
2018-07-10T14:53:48.405Z,7.97
2018-07-10T14:56:18.958Z,8.63
2018-07-10T14:58:48.644Z,8.18
2018-07-10T15:01:19.039Z,8.00
2018-07-10T15:03:48.389Z,8.20
2018-07-10T15:06:17.666Z,7.75
2018-07-10T15:08:47.755Z,7.75
2018-07-10T15:11:17.043Z,8.35
2018-07-10T15:14:00.504Z,8.00
2018-07-10T15:16:35.129Z,7.70
2018-07-10T15:19:04.755Z,8.43
2018-07-10T15:21:34.454Z,8.15
2018-07-10T15:24:05.402Z,8.50
2018-07-10T15:26:35.043Z,8.63
2018-07-10T15:29:04.505Z,9.45
2018-07-10T15:31:34.223Z,9.78
2018-07-10T15:34:04.290Z,9.98
2018-07-10T15:36:33.622Z,10.18
2018-07-10T15:39:05.203Z,9.43
2018-07-10T15:41:35.086Z,8.98
2018-07-10T15:44:05.568Z,9.80
2018-07-10T15:46:36.819Z,9.43
2018-07-10T15:49:06.960Z,9.78
2018-07-10T15:51:37.012Z,9.53
2018-07-10T15:54:09.196Z,9.40
2018-07-10T15:56:40.509Z,9.73
2018-07-10T15:59:09.978Z,6.15
2018-07-10T16:01:40.099Z,5.58
2018-07-10T16:04:10.698Z,6.25
2018-07-10T16:06:41.943Z,5.40
2018-07-10T16:09:19.033Z,5.80
2018-07-10T16:11:55.029Z,5.28
2018-07-10T16:14:24.521Z,5.55
2018-07-10T16:16:53.908Z,5.10
2018-07-10T16:19:35.491Z,5.97
2018-07-10T16:22:08.383Z,5.25
2018-07-10T16:24:43.898Z,5.67
2018-07-10T16:27:13.891Z,5.83
2018-07-10T16:29:43.310Z,6.25
2018-07-10T16:32:12.662Z,5.33
2018-07-10T16:34:41.928Z,4.97
2018-07-10T16:37:12.412Z,4.85
2018-07-10T16:39:42.226Z,5.30
2018-07-10T16:42:17.361Z,5.65
2018-07-10T16:44:46.787Z,5.45
2018-07-10T16:47:23.628Z,6.15
2018-07-10T16:49:53.632Z,4.72
2018-07-10T16:52:27.854Z,5.58
2018-07-10T16:54:57.347Z,5.20
2018-07-10T16:57:26.758Z,5.12
2018-07-10T16:59:56.967Z,6.90
2018-07-10T17:02:27.092Z,6.12
2018-07-10T17:04:56.704Z,5.58
2018-07-10T17:07:25.753Z,5.33
2018-07-10T17:09:55.858Z,4.70
2018-07-10T17:12:25.183Z,5.33
2018-07-10T17:14:59.792Z,5.75
2018-07-10T17:17:29.437Z,5.28
2018-07-10T17:19:59.607Z,5.20
2018-07-10T17:22:29.155Z,5.15
2018-07-10T17:24:58.550Z,4.60
2018-07-10T17:27:32.587Z,5.72
2018-07-10T17:30:03.083Z,5.08
2018-07-10T17:32:33.196Z,5.20
2018-07-10T17:35:03.243Z,5.47
2018-07-10T17:37:38.779Z,5.12
2018-07-10T17:40:08.276Z,5.08
2018-07-10T17:42:38.574Z,4.80
2018-07-10T17:45:11.627Z,4.50
2018-07-10T17:47:40.984Z,4.47
2018-07-10T17:50:10.367Z,5.65
2018-07-10T17:52:39.667Z,4.92
2018-07-10T17:55:09.104Z,4.90
2018-07-10T17:57:39.035Z,4.30
2018-07-10T18:00:08.425Z,4.37
2018-07-10T18:02:38.537Z,4.33
2018-07-10T18:05:07.851Z,5.42
2018-07-10T18:07:37.255Z,5.05
2018-07-10T18:10:06.616Z,4.78
2018-07-10T18:12:36.016Z,4.40
2018-07-10T18:15:05.463Z,4.60
2018-07-10T18:17:34.854Z,4.40
2018-07-10T18:20:04.697Z,4.67
2018-07-10T18:22:34.114Z,4.28
2018-07-10T18:25:03.719Z,5.00
2018-07-10T18:27:33.073Z,4.45
2018-07-10T18:30:02.442Z,4.95
2018-07-10T18:32:31.919Z,4.50
2018-07-10T18:35:01.358Z,4.45
2018-07-10T18:37:30.877Z,4.72
2018-07-10T18:40:01.179Z,4.55
2018-07-10T18:42:30.575Z,4.62
2018-07-10T18:45:00.403Z,4.60
2018-07-10T18:47:29.798Z,4.22
2018-07-10T18:49:59.545Z,5.10
2018-07-10T18:52:30.885Z,4.83
2018-07-10T18:55:01.481Z,4.65
2018-07-10T18:58:14.821Z,3.92
2018-07-10T19:01:27.373Z,4.00
2018-07-10T19:03:56.943Z,4.70
2018-07-10T19:06:26.345Z,3.95
2018-07-10T19:08:55.745Z,3.87
2018-07-10T19:11:27.035Z,3.17
2018-07-10T19:13:59.379Z,3.40
2018-07-10T19:16:30.582Z,3.50
2018-07-10T19:19:02.921Z,2.98
2018-07-10T19:21:37.800Z,2.75
2018-07-10T19:24:13.836Z,2.70
2018-07-10T19:26:43.408Z,2.40
2018-07-10T19:29:22.976Z,2.85
2018-07-10T19:31:53.383Z,2.50
2018-07-10T19:34:23.456Z,2.40
2018-07-10T19:36:52.841Z,2.30
2018-07-10T19:39:22.356Z,2.05
2018-07-10T19:41:51.794Z,2.17
2018-07-10T19:44:21.415Z,2.20
2018-07-10T19:46:51.768Z,2.30
2018-07-10T19:49:22.735Z,2.05
2018-07-10T19:51:52.219Z,2.12
2018-07-10T19:54:21.722Z,2.15
2018-07-10T19:56:51.196Z,2.30
2018-07-10T19:59:20.649Z,2.15
2018-07-10T20:01:53.191Z,1.90
2018-07-10T20:05:00.838Z,1.92
2018-07-10T20:07:33.887Z,1.70
2018-07-10T20:10:09.098Z,1.80
2018-07-10T20:12:43.269Z,2.02
2018-07-10T20:15:21.660Z,1.62
2018-07-10T20:19:35.015Z,1.80
2018-07-10T20:24:19.541Z,1.65
2018-07-10T20:27:02.275Z,1.82
2018-07-10T20:29:41.816Z,1.70
2018-07-10T20:32:16.058Z,1.85
2018-07-10T20:35:08.281Z,1.65
2018-07-10T20:37:38.982Z,1.80
2018-07-10T20:40:08.406Z,1.75
2018-07-10T20:42:43.816Z,2.00
2018-07-10T20:45:13.170Z,1.77
2018-07-10T20:47:52.720Z,1.75
2018-07-10T20:50:31.698Z,1.98
2018-07-10T20:53:03.592Z,1.77
2018-07-10T20:55:40.664Z,1.50
2018-07-10T20:58:17.006Z,1.70
2018-07-10T21:00:51.643Z,1.72
2018-07-10T21:03:56.407Z,1.90
2018-07-10T21:06:37.650Z,1.70
2018-07-10T21:09:10.559Z,1.62
2018-07-10T21:12:20.768Z,1.82
2018-07-10T21:15:10.484Z,1.50
2018-07-10T21:17:57.919Z,1.90
2018-07-10T21:21:52.344Z,1.70
2018-07-10T21:24:35.606Z,1.67
2018-07-10T21:27:07.927Z,1.80
2018-07-10T21:29:49.700Z,1.75
2018-07-10T21:32:27.892Z,1.40
2018-07-10T21:34:59.324Z,1.60
2018-07-10T21:37:39.171Z,1.60
2018-07-10T21:40:31.017Z,1.40
2018-07-10T21:43:15.187Z,1.70
2018-07-10T21:45:56.188Z,1.60
2018-07-10T21:48:30.710Z,1.50
2018-07-10T21:51:00.035Z,1.65
2018-07-10T21:53:29.932Z,1.70
2018-07-10T21:55:59.365Z,1.70
2018-07-10T21:58:28.744Z,1.52
2018-07-10T22:02:02.798Z,1.77
2018-07-10T22:04:33.347Z,1.50
2018-07-10T22:07:04.118Z,1.70
2018-07-10T22:09:35.772Z,1.42
2018-07-10T22:12:09.036Z,1.70
2018-07-10T22:14:38.484Z,1.90
2018-07-10T22:17:12.979Z,1.82
2018-07-10T22:19:43.846Z,1.62
2018-07-10T22:22:17.442Z,1.70
2018-07-10T22:24:47.850Z,1.40
2018-07-10T22:27:17.405Z,1.70
2018-07-10T22:29:52.371Z,1.50
2018-07-10T22:32:27.739Z,1.75
2018-07-10T22:34:57.061Z,1.82
2018-07-10T22:37:26.497Z,1.70
2018-07-10T22:39:55.802Z,1.60
2018-07-10T22:42:26.046Z,1.72
2018-07-10T22:44:58.160Z,1.52
2018-07-10T22:47:36.723Z,1.60
2018-07-10T22:50:22.199Z,1.57
2018-07-10T22:52:56.307Z,1.77
2018-07-10T22:55:27.560Z,1.70
2018-07-10T22:58:13.801Z,1.50
2018-07-10T23:00:43.231Z,1.70
2018-07-10T23:03:20.881Z,1.60
2018-07-10T23:05:51.259Z,1.47
2018-07-10T23:08:36.581Z,1.72
2018-07-10T23:11:07.304Z,1.80
2018-07-10T23:13:40.438Z,1.52
2018-07-10T23:16:09.712Z,1.70
2018-07-10T23:18:39.360Z,1.67
2018-07-10T23:21:11.328Z,1.70
2018-07-10T23:23:40.656Z,1.60
2018-07-10T23:26:12.032Z,1.77
2018-07-10T23:28:42.028Z,1.67
2018-07-10T23:31:14.151Z,1.62
2018-07-10T23:33:48.834Z,1.65
2018-07-10T23:36:18.304Z,1.90
2018-07-10T23:38:53.884Z,1.90
2018-07-10T23:41:30.635Z,2.00
2018-07-10T23:44:00.396Z,2.40
2018-07-10T23:46:34.641Z,2.37
2018-07-10T23:49:09.665Z,2.40
2018-07-10T23:51:50.895Z,2.67
2018-07-10T23:54:20.466Z,3.37
2018-07-10T23:56:50.751Z,3.40
2018-07-10T23:59:20.940Z,2.83
